Aviation Digital Data Service (ADDS)

Output produced by METARs form (0323 UTC 21 September 2017)
found at http://www.aviationweather.gov/adds/metars/
 
DBBB 210300Z 21012KT 8000 SCT011 25/24 Q1011 NOSIG
TAF DBBB 202300Z 2100/2206 22010KT 9999 SCT012 
     TEMPO 2104/2110 BKN010